createdAt,value
2018-12-03T00:00:24.310Z,7.70
2018-12-03T00:02:59.827Z,7.70
2018-12-03T00:05:28.411Z,7.80
2018-12-03T00:07:57.019Z,7.80
2018-12-03T00:10:26.303Z,7.90
2018-12-03T00:12:54.811Z,7.90
2018-12-03T00:15:23.385Z,7.90
2018-12-03T00:17:51.951Z,7.90
2018-12-03T00:20:20.538Z,7.90
2018-12-03T00:22:49.083Z,8.00
2018-12-03T00:25:17.682Z,8.10
2018-12-03T00:27:52.309Z,8.00
2018-12-03T00:30:21.188Z,7.90
2018-12-03T00:32:50.124Z,7.90
2018-12-03T00:35:18.750Z,7.80
2018-12-03T00:37:47.571Z,7.80
2018-12-03T00:40:17.493Z,7.80
2018-12-03T00:42:46.182Z,7.80
2018-12-03T00:45:15.456Z,7.80
2018-12-03T00:47:44.001Z,7.80
2018-12-03T00:50:12.566Z,7.80
2018-12-03T00:52:41.110Z,7.80
2018-12-03T00:55:09.703Z,7.70
2018-12-03T00:57:38.217Z,7.70
2018-12-03T01:00:08.896Z,7.70
2018-12-03T01:02:37.711Z,7.70
2018-12-03T01:05:07.906Z,7.70
2018-12-03T01:07:36.635Z,7.70
2018-12-03T01:10:07.153Z,7.70
2018-12-03T01:12:35.755Z,7.70
2018-12-03T01:15:05.571Z,7.70
2018-12-03T01:17:34.122Z,7.80
2018-12-03T01:20:02.676Z,7.80
2018-12-03T01:22:31.250Z,7.80
2018-12-03T01:24:59.778Z,7.80
2018-12-03T01:27:28.343Z,7.90
2018-12-03T01:29:56.901Z,7.90
2018-12-03T01:32:25.417Z,7.90
2018-12-03T01:34:53.946Z,8.00
2018-12-03T01:37:22.488Z,7.90
2018-12-03T01:39:51.012Z,8.00
2018-12-03T01:42:19.578Z,8.00
2018-12-03T01:44:48.102Z,8.00
2018-12-03T01:47:16.654Z,8.00
2018-12-03T01:49:45.183Z,8.00
2018-12-03T01:52:13.703Z,8.00
2018-12-03T01:54:42.278Z,8.00
2018-12-03T01:57:10.839Z,8.00
2018-12-03T01:59:39.363Z,8.00
2018-12-03T02:02:07.900Z,8.00
2018-12-03T02:04:36.435Z,8.00
2018-12-03T02:07:05.186Z,8.10
2018-12-03T02:09:33.767Z,8.10
2018-12-03T02:12:02.387Z,8.10
2018-12-03T02:14:30.915Z,8.00
2018-12-03T02:16:59.439Z,8.00
2018-12-03T02:19:27.975Z,8.00
2018-12-03T02:21:56.584Z,8.10
2018-12-03T02:24:25.146Z,8.10
2018-12-03T02:26:53.687Z,8.10
2018-12-03T02:29:22.214Z,8.00
2018-12-03T02:31:50.767Z,8.00
2018-12-03T02:34:19.309Z,8.00
2018-12-03T02:36:47.843Z,8.00
2018-12-03T02:39:16.384Z,8.00
2018-12-03T02:41:44.951Z,8.00
2018-12-03T02:44:13.514Z,8.00
2018-12-03T02:46:42.035Z,8.00
2018-12-03T02:49:10.566Z,8.00
2018-12-03T02:51:39.103Z,8.00
2018-12-03T02:54:07.664Z,8.00
2018-12-03T02:56:36.221Z,8.00
2018-12-03T02:59:04.745Z,8.00
2018-12-03T03:01:33.275Z,8.00
2018-12-03T03:04:01.807Z,8.00
2018-12-03T03:06:30.351Z,8.00
2018-12-03T03:08:58.847Z,8.00
2018-12-03T03:11:27.357Z,8.00
2018-12-03T03:13:55.843Z,8.00
2018-12-03T03:16:24.402Z,7.90
2018-12-03T03:18:52.889Z,7.90
2018-12-03T03:21:21.422Z,7.90
2018-12-03T03:23:49.902Z,7.90
2018-12-03T03:26:18.433Z,7.90
2018-12-03T03:28:47.030Z,7.90
2018-12-03T03:31:15.567Z,7.80
2018-12-03T03:33:44.083Z,7.80
2018-12-03T03:36:12.593Z,7.80
2018-12-03T03:38:41.107Z,7.80
2018-12-03T03:41:09.641Z,7.80
2018-12-03T03:43:38.154Z,7.90
2018-12-03T03:46:06.729Z,7.90
2018-12-03T03:48:35.269Z,7.80
2018-12-03T03:51:03.771Z,7.80
2018-12-03T03:53:32.274Z,7.80
2018-12-03T03:56:00.802Z,7.80
2018-12-03T03:58:29.321Z,7.80
2018-12-03T04:00:57.852Z,7.90
2018-12-03T04:03:26.343Z,7.80
2018-12-03T04:05:54.851Z,7.90
2018-12-03T04:08:23.336Z,7.80
2018-12-03T04:10:51.846Z,7.80
2018-12-03T04:13:20.369Z,7.80
2018-12-03T04:15:48.946Z,7.80
2018-12-03T04:18:17.450Z,7.80
2018-12-03T04:20:45.966Z,7.80
2018-12-03T04:23:14.470Z,7.80
2018-12-03T04:25:42.958Z,7.80
2018-12-03T04:28:11.448Z,7.80
2018-12-03T04:30:39.988Z,7.80
2018-12-03T04:33:08.494Z,7.80
2018-12-03T04:35:37.011Z,7.80
2018-12-03T04:38:05.713Z,7.80
2018-12-03T04:40:34.240Z,7.90
2018-12-03T04:43:02.734Z,7.80
2018-12-03T04:45:31.225Z,7.80
2018-12-03T04:47:59.762Z,7.90
2018-12-03T04:50:28.267Z,7.90
2018-12-03T04:52:56.785Z,7.90
2018-12-03T04:55:25.310Z,7.90
2018-12-03T04:57:53.816Z,7.90
2018-12-03T05:00:22.569Z,7.80
2018-12-03T05:02:52.120Z,7.80
2018-12-03T05:05:20.685Z,7.70
2018-12-03T05:07:49.239Z,7.70
2018-12-03T05:10:19.766Z,7.70
2018-12-03T05:12:50.122Z,7.70
2018-12-03T05:15:18.693Z,7.60
2018-12-03T05:17:47.214Z,7.60
2018-12-03T05:20:19.014Z,7.50
2018-12-03T05:22:47.532Z,7.50
2018-12-03T05:25:19.198Z,7.40
2018-12-03T05:27:44.619Z,7.40
2018-12-03T05:30:14.261Z,7.40
2018-12-03T05:32:43.519Z,7.30
2018-12-03T05:35:28.250Z,7.30
2018-12-03T05:37:56.958Z,7.30
2018-12-03T05:40:29.245Z,7.30
2018-12-03T05:42:57.721Z,7.40
2018-12-03T05:45:26.322Z,7.40
2018-12-03T05:47:54.818Z,7.40
2018-12-03T05:50:23.323Z,7.50
2018-12-03T05:52:51.840Z,7.50
2018-12-03T05:55:20.343Z,7.50
2018-12-03T05:57:48.838Z,7.50
2018-12-03T06:00:19.079Z,7.50
2018-12-03T06:02:47.592Z,7.50
2018-12-03T06:05:16.589Z,7.60
2018-12-03T06:07:45.234Z,7.60
2018-12-03T06:10:15.114Z,7.60
2018-12-03T06:12:43.648Z,7.60
2018-12-03T06:15:14.262Z,7.60
2018-12-03T06:17:42.789Z,7.50
2018-12-03T06:20:13.639Z,7.50
2018-12-03T06:22:42.218Z,7.50
2018-12-03T06:25:14.890Z,7.50
2018-12-03T06:27:43.439Z,7.60
2018-12-03T06:30:19.656Z,7.60
2018-12-03T06:32:48.169Z,7.60
2018-12-03T06:35:17.438Z,7.60
2018-12-03T06:37:46.087Z,7.60
2018-12-03T06:40:15.911Z,7.60
2018-12-03T06:42:44.454Z,7.70
2018-12-03T06:45:15.054Z,7.70
2018-12-03T06:47:48.501Z,7.70
2018-12-03T06:50:17.014Z,7.80
2018-12-03T06:52:45.541Z,7.80
2018-12-03T06:55:14.045Z,7.80
2018-12-03T06:57:42.566Z,7.90
2018-12-03T07:00:14.827Z,7.80
2018-12-03T07:02:43.929Z,7.80
2018-12-03T07:05:12.849Z,7.80
2018-12-03T07:07:42.385Z,7.80
2018-12-03T07:10:14.453Z,7.70
2018-12-03T07:12:43.461Z,7.80
2018-12-03T07:15:13.789Z,7.80
2018-12-03T07:17:42.434Z,7.80
2018-12-03T07:20:12.107Z,7.80
2018-12-03T07:22:40.964Z,7.80
2018-12-03T07:25:11.559Z,7.80
2018-12-03T07:27:40.334Z,7.80
2018-12-03T07:30:16.260Z,7.80
2018-12-03T07:32:47.056Z,7.80
2018-12-03T07:35:14.417Z,7.80
2018-12-03T07:37:43.221Z,7.80
2018-12-03T07:40:12.558Z,7.90
2018-12-03T07:42:42.074Z,7.90
2018-12-03T07:45:12.982Z,7.90
2018-12-03T07:47:41.505Z,7.80
2018-12-03T07:50:11.355Z,7.90
2018-12-03T07:52:40.051Z,7.80
2018-12-03T07:55:10.047Z,7.90
2018-12-03T07:57:39.450Z,7.90
2018-12-03T08:00:19.717Z,7.90
2018-12-03T08:02:48.270Z,7.90
2018-12-03T08:05:16.800Z,7.90
2018-12-03T08:07:45.317Z,7.90
2018-12-03T08:10:17.007Z,8.00
2018-12-03T08:12:46.505Z,8.00
2018-12-03T08:15:19.778Z,8.00
2018-12-03T08:17:52.969Z,8.00
2018-12-03T08:20:55.088Z,8.00
2018-12-03T08:23:34.484Z,8.10
2018-12-03T08:26:03.842Z,8.10
2018-12-03T08:28:32.366Z,8.20
2018-12-03T08:31:00.874Z,8.20
2018-12-03T08:33:29.378Z,8.30
2018-12-03T08:35:57.916Z,8.30
2018-12-03T08:38:26.457Z,8.30
2018-12-03T08:40:54.970Z,8.30
2018-12-03T08:43:23.468Z,8.40
2018-12-03T08:45:57.385Z,8.50
2018-12-03T08:48:25.954Z,8.50
2018-12-03T08:50:54.494Z,8.60
2018-12-03T08:53:22.999Z,8.60
2018-12-03T08:55:51.535Z,8.60
2018-12-03T08:58:20.019Z,8.70
2018-12-03T09:00:48.521Z,8.70
2018-12-03T09:03:22.968Z,8.80
2018-12-03T09:05:51.483Z,8.80
2018-12-03T09:08:19.990Z,8.90
2018-12-03T09:10:48.561Z,8.90
2018-12-03T09:13:24.928Z,8.90
2018-12-03T09:16:01.671Z,9.00
2018-12-03T09:18:36.807Z,9.00
2018-12-03T09:21:09.535Z,9.10
2018-12-03T09:23:38.109Z,9.10
2018-12-03T09:26:07.889Z,9.10
2018-12-03T09:28:36.710Z,9.20
2018-12-03T09:31:05.577Z,9.20
2018-12-03T09:33:34.318Z,9.20
2018-12-03T09:36:02.934Z,9.20
2018-12-03T09:38:37.407Z,9.20
2018-12-03T09:41:06.246Z,9.30
2018-12-03T09:43:34.782Z,9.30
2018-12-03T09:46:03.302Z,9.30
2018-12-03T09:48:31.782Z,9.20
2018-12-03T09:51:00.286Z,9.30
2018-12-03T09:53:28.814Z,9.30
2018-12-03T09:55:57.328Z,9.30
2018-12-03T09:58:25.834Z,9.30
2018-12-03T10:00:54.379Z,9.30
2018-12-03T10:03:25.891Z,9.30
2018-12-03T10:05:58.988Z,9.30
2018-12-03T10:08:30.967Z,9.30
2018-12-03T10:11:01.722Z,9.40
2018-12-03T10:13:31.193Z,9.40
2018-12-03T10:15:59.727Z,9.50
2018-12-03T10:18:28.234Z,9.40
2018-12-03T10:20:59.320Z,9.40
2018-12-03T10:23:27.805Z,9.50
2018-12-03T10:25:57.834Z,9.50
2018-12-03T10:28:27.005Z,9.50
2018-12-03T10:30:56.837Z,9.60
2018-12-03T10:33:30.797Z,9.60
2018-12-03T10:36:00.665Z,9.80
2018-12-03T10:38:32.556Z,9.80
2018-12-03T10:41:08.099Z,9.80
2018-12-03T10:43:36.614Z,9.90
2018-12-03T10:46:05.606Z,9.90
2018-12-03T10:48:34.107Z,10.00
2018-12-03T10:51:02.657Z,10.00
2018-12-03T10:53:32.179Z,10.00
2018-12-03T10:56:00.698Z,10.10
2018-12-03T10:58:35.216Z,10.10
2018-12-03T11:01:12.969Z,10.20
2018-12-03T11:03:46.775Z,10.20
2018-12-03T11:06:17.102Z,10.30
2018-12-03T11:08:46.354Z,10.30
2018-12-03T11:11:15.450Z,10.30
2018-12-03T11:13:44.040Z,10.30
2018-12-03T11:16:27.137Z,10.30
2018-12-03T11:18:56.406Z,10.40
2018-12-03T11:21:25.729Z,10.40
2018-12-03T11:23:54.290Z,10.40
2018-12-03T11:26:27.332Z,10.40
2018-12-03T11:28:55.919Z,10.50
2018-12-03T11:31:27.443Z,10.50
2018-12-03T11:33:55.945Z,10.50
2018-12-03T11:36:29.797Z,10.50
2018-12-03T11:39:08.927Z,10.50
2018-12-03T11:41:37.449Z,10.50
2018-12-03T11:44:06.510Z,10.60
2018-12-03T11:46:35.038Z,10.60
2018-12-03T11:49:03.575Z,10.70
2018-12-03T11:51:32.115Z,10.70
2018-12-03T11:54:00.642Z,10.70
2018-12-03T11:56:29.178Z,10.70
2018-12-03T11:58:57.730Z,10.80
2018-12-03T12:01:26.273Z,10.80
2018-12-03T12:03:54.767Z,10.90
2018-12-03T12:06:23.274Z,11.00
2018-12-03T12:08:51.769Z,11.00
2018-12-03T12:11:20.318Z,11.10
2018-12-03T12:13:48.821Z,11.20
2018-12-03T12:16:17.369Z,11.20
2018-12-03T12:18:45.919Z,11.30
2018-12-03T12:21:14.426Z,11.30
2018-12-03T12:23:42.937Z,11.30
2018-12-03T12:26:11.501Z,11.30
2018-12-03T12:28:40.053Z,11.30
2018-12-03T12:31:08.571Z,11.30
2018-12-03T12:33:37.087Z,11.30
2018-12-03T12:36:05.956Z,11.40
2018-12-03T12:38:34.477Z,11.40
2018-12-03T12:41:02.986Z,11.40
2018-12-03T12:43:31.542Z,11.50
2018-12-03T12:46:04.147Z,11.50
2018-12-03T12:48:32.661Z,11.50
2018-12-03T12:51:01.167Z,11.40
2018-12-03T12:53:30.741Z,11.40
2018-12-03T12:55:59.222Z,11.40
2018-12-03T12:58:27.725Z,11.40
2018-12-03T13:00:56.234Z,11.40
2018-12-03T13:03:24.733Z,11.40
2018-12-03T13:05:53.234Z,11.40
2018-12-03T13:08:21.818Z,11.40
2018-12-03T13:10:50.352Z,11.40
2018-12-03T13:13:18.863Z,11.40
2018-12-03T13:15:47.394Z,11.40
2018-12-03T13:18:15.909Z,11.40
2018-12-03T13:20:44.458Z,11.40
2018-12-03T13:23:12.983Z,11.40
2018-12-03T13:25:41.489Z,11.40
2018-12-03T13:28:10.021Z,11.40
2018-12-03T13:30:38.513Z,11.40
2018-12-03T13:33:07.418Z,11.40
2018-12-03T13:35:35.934Z,11.30
2018-12-03T13:38:04.541Z,11.40
2018-12-03T13:40:33.106Z,11.40
2018-12-03T13:43:01.683Z,11.40
2018-12-03T13:45:30.207Z,11.40
2018-12-03T13:47:59.942Z,11.40
2018-12-03T13:50:28.498Z,11.40
2018-12-03T13:52:57.007Z,11.30
2018-12-03T13:55:25.550Z,11.30
2018-12-03T13:57:54.118Z,11.30
2018-12-03T14:00:24.055Z,11.20
2018-12-03T14:03:01.058Z,11.20
2018-12-03T14:05:31.970Z,11.10
2018-12-03T14:08:08.270Z,11.10
2018-12-03T14:10:52.306Z,11.10
2018-12-03T14:14:29.075Z,11.00
2018-12-03T14:17:17.417Z,11.00
2018-12-03T14:19:49.338Z,11.00
2018-12-03T14:22:21.738Z,10.90
2018-12-03T14:24:50.288Z,10.80
2018-12-03T14:27:18.803Z,10.80
2018-12-03T14:29:47.349Z,10.70
2018-12-03T14:32:15.870Z,10.70
2018-12-03T14:34:44.438Z,10.70
2018-12-03T14:37:12.962Z,10.60
2018-12-03T14:39:41.465Z,10.60
2018-12-03T14:42:09.999Z,10.60
2018-12-03T14:44:38.510Z,10.60
2018-12-03T14:47:07.047Z,10.60
2018-12-03T14:49:35.551Z,10.60
2018-12-03T14:52:04.131Z,10.60
2018-12-03T14:54:32.686Z,10.60
2018-12-03T14:57:01.195Z,10.70
2018-12-03T14:59:29.746Z,10.80
2018-12-03T15:01:58.298Z,10.80
2018-12-03T15:04:26.838Z,10.80
2018-12-03T15:06:55.363Z,10.90
2018-12-03T15:09:23.885Z,10.90
2018-12-03T15:11:52.382Z,10.90
2018-12-03T15:14:20.894Z,10.80
2018-12-03T15:16:49.441Z,10.90
2018-12-03T15:19:17.969Z,10.80
2018-12-03T15:21:46.510Z,10.80
2018-12-03T15:24:15.033Z,10.70
2018-12-03T15:26:43.540Z,10.70
2018-12-03T15:29:12.061Z,10.60
2018-12-03T15:31:40.563Z,10.50
2018-12-03T15:34:09.081Z,10.40
2018-12-03T15:36:37.558Z,10.30
2018-12-03T15:39:09.386Z,10.20
2018-12-03T15:41:37.901Z,10.10
2018-12-03T15:44:06.424Z,10.00
2018-12-03T15:46:34.962Z,10.00
2018-12-03T15:49:03.442Z,9.90
2018-12-03T15:51:31.966Z,9.90
2018-12-03T15:54:00.464Z,9.70
2018-12-03T15:56:28.972Z,9.70
2018-12-03T15:58:57.496Z,9.70
2018-12-03T16:01:26.943Z,9.70
2018-12-03T16:03:55.430Z,9.60
2018-12-03T16:06:23.938Z,9.60
2018-12-03T16:08:52.941Z,9.60
2018-12-03T16:11:21.456Z,9.60
2018-12-03T16:13:49.989Z,9.60
2018-12-03T16:16:18.488Z,9.60
2018-12-03T16:18:47.008Z,9.60
2018-12-03T16:21:15.486Z,9.50
2018-12-03T16:23:44.009Z,9.50
2018-12-03T16:26:12.578Z,9.50
2018-12-03T16:28:41.085Z,9.40
2018-12-03T16:31:09.630Z,9.30
2018-12-03T16:33:38.112Z,9.30
2018-12-03T16:36:06.610Z,9.20
2018-12-03T16:38:35.127Z,9.20
2018-12-03T16:41:03.631Z,9.20
2018-12-03T16:43:32.160Z,9.10
2018-12-03T16:46:00.629Z,9.10
2018-12-03T16:48:29.119Z,9.10
2018-12-03T16:50:57.594Z,9.10
2018-12-03T16:53:26.106Z,9.10
2018-12-03T16:55:54.662Z,9.20
2018-12-03T16:58:23.158Z,9.20
2018-12-03T17:00:51.664Z,9.30
2018-12-03T17:03:20.167Z,9.40
2018-12-03T17:05:48.702Z,9.40
2018-12-03T17:08:17.199Z,9.40
2018-12-03T17:10:45.810Z,9.40
2018-12-03T17:13:14.322Z,9.40
2018-12-03T17:15:42.807Z,9.30
2018-12-03T17:18:11.306Z,9.30
2018-12-03T17:20:45.217Z,9.30
2018-12-03T17:23:24.246Z,9.40
2018-12-03T17:25:53.232Z,9.30
2018-12-03T17:28:21.718Z,9.30
2018-12-03T17:30:50.210Z,9.20
2018-12-03T17:33:18.691Z,9.20
2018-12-03T17:35:47.215Z,9.20
2018-12-03T17:38:15.706Z,9.20
2018-12-03T17:40:44.228Z,9.10
2018-12-03T17:43:12.846Z,9.10
2018-12-03T17:46:13.019Z,9.00
2018-12-03T17:48:40.528Z,9.10
2018-12-03T17:51:08.141Z,9.00
2018-12-03T17:53:35.650Z,8.90
2018-12-03T17:56:03.160Z,8.90
2018-12-03T17:58:30.706Z,8.80
2018-12-03T18:00:58.256Z,8.80
2018-12-03T18:03:25.766Z,8.70
2018-12-03T18:05:53.298Z,8.70
2018-12-03T18:08:20.826Z,8.70
2018-12-03T18:10:48.330Z,8.60
2018-12-03T18:13:15.834Z,8.60
2018-12-03T18:15:43.354Z,8.60
2018-12-03T18:18:10.887Z,8.60
2018-12-03T18:20:38.438Z,8.60
2018-12-03T18:23:05.974Z,8.60
2018-12-03T18:25:33.500Z,8.60
2018-12-03T18:28:02.138Z,8.60
2018-12-03T18:30:29.882Z,8.60
2018-12-03T18:32:57.385Z,8.60
2018-12-03T18:35:24.895Z,8.60
2018-12-03T18:37:52.427Z,8.60
2018-12-03T18:40:19.934Z,8.50
2018-12-03T18:42:47.466Z,8.50
2018-12-03T18:45:15.482Z,8.50
2018-12-03T18:47:42.991Z,8.50
2018-12-03T18:50:10.800Z,8.50
2018-12-03T18:52:38.344Z,8.50
2018-12-03T18:55:05.874Z,8.50
2018-12-03T18:57:33.399Z,8.40
2018-12-03T19:00:00.914Z,8.40
2018-12-03T19:02:28.456Z,8.30
2018-12-03T19:04:56.095Z,8.30
2018-12-03T19:07:23.599Z,8.20
2018-12-03T19:09:51.256Z,8.20
2018-12-03T19:12:18.780Z,8.10
2018-12-03T19:14:46.297Z,8.10
2018-12-03T19:17:13.850Z,8.10
2018-12-03T19:19:41.389Z,8.00
2018-12-03T19:22:08.965Z,7.90
2018-12-03T19:24:36.510Z,7.90
2018-12-03T19:27:04.092Z,7.80
2018-12-03T19:29:31.653Z,7.80
2018-12-03T19:31:59.196Z,7.80
2018-12-03T19:34:26.764Z,7.70
2018-12-03T19:36:54.306Z,7.70
2018-12-03T19:39:21.850Z,7.70
2018-12-03T19:41:49.375Z,7.60
2018-12-03T19:44:16.907Z,7.60
2018-12-03T19:46:44.468Z,7.50
2018-12-03T19:49:12.087Z,7.50
2018-12-03T19:51:39.623Z,7.50
2018-12-03T19:54:07.137Z,7.40
2018-12-03T19:56:34.705Z,7.30
2018-12-03T19:59:02.227Z,7.30
2018-12-03T20:01:29.784Z,7.20
2018-12-03T20:03:57.315Z,7.30
2018-12-03T20:06:24.846Z,7.30
2018-12-03T20:08:52.418Z,7.30
2018-12-03T20:11:19.973Z,7.20
2018-12-03T20:13:47.508Z,7.30
2018-12-03T20:16:15.042Z,7.30
2018-12-03T20:18:42.577Z,7.20
2018-12-03T20:21:10.214Z,7.20
2018-12-03T20:23:37.757Z,7.10
2018-12-03T20:26:05.303Z,7.20
2018-12-03T20:28:33.082Z,7.30
2018-12-03T20:31:03.167Z,7.20
2018-12-03T20:33:30.963Z,7.30
2018-12-03T20:35:58.586Z,7.30
2018-12-03T20:38:26.242Z,7.40
2018-12-03T20:40:53.796Z,7.40
2018-12-03T20:43:21.420Z,7.30
2018-12-03T20:45:52.919Z,7.30
2018-12-03T20:48:21.130Z,7.30
2018-12-03T20:50:48.747Z,7.20
2018-12-03T20:53:16.298Z,7.20
2018-12-03T20:55:43.847Z,7.20
2018-12-03T20:58:11.381Z,7.20
2018-12-03T21:00:38.894Z,7.10
2018-12-03T21:03:06.421Z,7.10
2018-12-03T21:05:33.965Z,7.00
2018-12-03T21:08:01.496Z,7.00
2018-12-03T21:10:29.062Z,7.00
2018-12-03T21:12:56.593Z,7.10
2018-12-03T21:15:24.137Z,7.00
2018-12-03T21:17:51.666Z,7.00
2018-12-03T21:20:19.206Z,7.00
2018-12-03T21:22:46.734Z,7.00
2018-12-03T21:25:14.251Z,7.00
2018-12-03T21:27:41.794Z,6.90
2018-12-03T21:30:09.382Z,6.90
2018-12-03T21:32:36.917Z,6.90
2018-12-03T21:35:05.713Z,6.90
2018-12-03T21:37:33.252Z,6.90
2018-12-03T21:40:00.771Z,6.90
2018-12-03T21:42:28.374Z,6.90
2018-12-03T21:44:55.994Z,6.90
2018-12-03T21:47:23.506Z,6.90
2018-12-03T21:49:51.043Z,6.80
2018-12-03T21:52:18.578Z,6.80
2018-12-03T21:54:46.100Z,6.80
2018-12-03T21:57:13.644Z,6.90
2018-12-03T21:59:41.177Z,6.80
2018-12-03T22:02:08.694Z,6.80
2018-12-03T22:04:36.229Z,6.80
2018-12-03T22:07:03.826Z,6.70
2018-12-03T22:09:31.372Z,6.80
2018-12-03T22:11:58.931Z,6.80
2018-12-03T22:14:26.466Z,6.80
2018-12-03T22:16:53.981Z,6.90
2018-12-03T22:19:22.414Z,6.90
2018-12-03T22:21:49.980Z,6.90
2018-12-03T22:24:17.510Z,6.90
2018-12-03T22:26:45.041Z,7.00
2018-12-03T22:29:12.567Z,7.00
2018-12-03T22:31:40.118Z,7.00
2018-12-03T22:34:07.668Z,7.10
2018-12-03T22:36:35.200Z,7.10
2018-12-03T22:39:04.219Z,7.10
2018-12-03T22:41:31.758Z,7.10
2018-12-03T22:43:59.294Z,7.20
2018-12-03T22:46:26.829Z,7.20
2018-12-03T22:48:54.372Z,7.30
2018-12-03T22:51:21.938Z,7.40
2018-12-03T22:53:49.479Z,7.40
2018-12-03T22:56:17.057Z,7.50
2018-12-03T22:58:44.589Z,7.40
2018-12-03T23:01:14.271Z,7.40
2018-12-03T23:03:41.817Z,7.40
2018-12-03T23:06:09.359Z,7.40
2018-12-03T23:08:36.898Z,7.40
2018-12-03T23:11:04.438Z,7.50
2018-12-03T23:13:31.978Z,7.50
2018-12-03T23:15:59.521Z,7.50
2018-12-03T23:18:27.068Z,7.60
2018-12-03T23:20:54.678Z,7.60
2018-12-03T23:23:22.289Z,7.70
2018-12-03T23:25:49.831Z,7.60
2018-12-03T23:28:17.370Z,7.60
2018-12-03T23:30:44.909Z,7.60
2018-12-03T23:33:12.437Z,7.60
2018-12-03T23:35:39.950Z,7.60
2018-12-03T23:38:07.478Z,7.70
2018-12-03T23:40:34.995Z,7.70
2018-12-03T23:43:02.560Z,7.70
2018-12-03T23:45:30.158Z,7.70
2018-12-03T23:47:57.699Z,7.70
2018-12-03T23:50:25.242Z,7.70
2018-12-03T23:52:52.777Z,7.70
2018-12-03T23:55:20.311Z,7.70
2018-12-03T23:57:47.845Z,7.70
